Flight Track Log - Related Links

Times and Time Zones

All times are in EST time to prevent confusion due to time zone crossing. See the N836EA flight status page for this flight to view local times or setup timezone preferences in your user account.

Time Position Orientation Groundspeed Altitude Reporting Facility
EST Latitude Longitude Course Direction KTS MPH feet Rate Location/Type
Wed 10:21:10 AM 30.0775 -95.5564 352° North 113 130 600  Level Houston Center
Wed 10:21:54 AM 30.1031 -95.5606 352° North 128 147 1,700 1,442 Climbing Houston Center
Wed 10:22:54 AM 30.1414 -95.5658 353° North 144 166 3,100 988 Climbing Houston Center
Wed 10:23:19 AM 30.1558 -95.5647 North 141 162 3,100 194 Level Houston Center
Wed 10:23:56 AM 30.1911 -95.5358 35° Northeast 225 259 3,300 774 Climbing Houston Center
Wed 10:24:21 AM 30.2011 -95.5217 51° Northeast 209 241 3,900 2,361 Climbing Houston Center
Wed 10:24:57 AM 30.2272 -95.4928 44° Northeast 166 191 5,700 2,516 Climbing Houston Center
Wed 10:25:23 AM 30.2356 -95.4831 45° Northeast 179 206 6,500 2,727 Climbing Houston Center
Wed 10:25:52 AM 30.2519 -95.4656 43° Northeast 127 146 8,200 2,710 Climbing Houston Center
Wed 10:26:25 AM 30.2647 -95.4497 47° Northeast 130 150 9,300 1,958 Climbing Houston Center
Wed 10:27:27 AM 30.2914 -95.4208 43° Northeast 131 151 11,300 1,597 Climbing Houston Center
Wed 10:28:29 AM 30.3217 -95.3833 47° Northeast 154 177 12,600 1,548 Climbing Houston Center
Wed 10:29:31 AM 30.3556 -95.3447 45° Northeast 168 193 14,500 1,152 Climbing Houston Center
Wed 10:30:34 AM 30.3933 -95.3017 45° Northeast 199 229 15,000 240 Climbing Houston Center
Wed 10:31:36 AM 30.4453 -95.2411 45° Northeast 241 277 15,000  Level Houston Center
Wed 10:32:38 AM 30.4956 -95.1844 44° Northeast 250 288 15,000 48 Level Houston Center
Wed 10:33:40 AM 30.5444 -95.1281 45° Northeast 249 287 15,100 484 Climbing Houston Center
Wed 10:34:42 AM 30.5975 -95.0664 45° Northeast 226 260 16,000 774 Climbing Houston Center
Wed 10:35:44 AM 30.6503 -95.0353 27° Northeast 214 246 16,700 480 Climbing Houston Center
Wed 10:36:47 AM 30.7011 -95.0044 28° Northeast 207 238 17,000 480 Climbing Houston Center
Wed 10:37:49 AM 30.7542 -94.9706 29° Northeast 217 250 17,700 774 Climbing Houston Center
Wed 10:38:51 AM 30.8011 -94.9419 28° Northeast 195 224 18,600 1,113 Climbing Houston Center
Wed 10:39:53 AM 30.8431 -94.9161 28° Northeast 175 201 20,000 1,403 Climbing Houston Center
Wed 10:40:55 AM 30.8931 -94.8853 28° Northeast 169 194 21,500 1,355 Climbing Houston Center
Wed 10:41:57 AM 30.9361 -94.8589 28° Northeast 174 200 22,800 1,161 Climbing Houston Center
Wed 10:42:59 AM 30.9794 -94.8347 26° Northeast 173 199 23,900 1,104 Climbing Houston Center
Wed 10:44:02 AM 31.0239 -94.8122 23° Northeast 173 199 25,100 1,104 Climbing Houston Center
Wed 10:45:04 AM 31.0694 -94.7886 24° Northeast 177 204 26,200 919 Climbing Houston Center
Wed 10:46:06 AM 31.1269 -94.7592 24° Northeast 188 216 27,000 387 Climbing Houston Center
Wed 10:47:08 AM 31.1772 -94.7325 24° Northeast 211 243 27,000  Level Houston Center
Wed 10:48:10 AM 31.2350 -94.7022 24° Northeast 226 260 27,000  Level Houston Center
Wed 10:49:12 AM 31.2972 -94.6706 24° Northeast 234 269 27,000  Level Houston Center
Wed 10:50:14 AM 31.3683 -94.6336 24° Northeast 234 269 27,000  Level Houston Center
Wed 10:51:17 AM 31.4275 -94.6019 25° Northeast 234 269 27,000  Level Houston Center
Wed 10:52:19 AM 31.4872 -94.5708 24° Northeast 235 270 27,000  Level Houston Center
Wed 10:53:21 AM 31.5458 -94.5400 24° Northeast 232 267 27,000  Level Houston Center
Wed 10:54:23 AM 31.6067 -94.5086 24° Northeast 237 273 27,000  Level Houston Center
Wed 10:55:25 AM 31.6781 -94.4706 24° Northeast 237 273 27,000  Level Houston Center
Wed 10:56:27 AM 31.7378 -94.4394 24° Northeast 235 270 27,000  Level Houston Center
Wed 10:57:29 AM 31.7969 -94.4081 24° Northeast 234 269 27,000  Level Houston Center
Wed 10:58:32 AM 31.8578 -94.3764 24° Northeast 237 273 27,000  Level Houston Center
Wed 10:59:26 AM 31.9181 -94.3447 24° Northeast 235 270 27,000  Level Fort Worth Center
Wed 11:00:28 AM 31.9781 -94.3133 24° Northeast 236 272 27,000  Level Fort Worth Center
Wed 11:01:30 AM 32.0378 -94.2822 24° Northeast 236 272 27,000  Level Fort Worth Center
Wed 11:02:32 AM 32.0964 -94.2508 24° Northeast 231 266 27,000  Level Fort Worth Center
Wed 11:03:35 AM 32.1553 -94.2194 24° Northeast 231 266 27,000  Level Fort Worth Center
Wed 11:04:37 AM 32.2189 -94.1867 24° Northeast 233 268 27,000  Level Fort Worth Center
Wed 11:05:39 AM 32.2772 -94.1539 25° Northeast 231 266 27,000  Level Fort Worth Center
Wed 11:06:41 AM 32.3369 -94.1231 24° Northeast 233 268 27,000  Level Fort Worth Center
Wed 11:07:43 AM 32.4083 -94.0853 24° Northeast 234 269 27,000  Level Fort Worth Center
Wed 11:08:45 AM 32.4664 -94.0517 26° Northeast 234 269 27,000  Level Fort Worth Center
Wed 11:09:47 AM 32.5258 -94.0200 24° Northeast 234 269 27,000  Level Fort Worth Center
Wed 11:10:49 AM 32.5839 -93.9892 24° Northeast 230 265 27,000  Level Fort Worth Center
Wed 11:11:51 AM 32.6414 -93.9575 25° Northeast 227 261 27,000  Level Fort Worth Center
Wed 11:12:53 AM 32.6983 -93.9283 23° Northeast 224 258 27,000  Level Fort Worth Center
Wed 11:13:56 AM 32.7664 -93.8917 24° Northeast 225 259 27,000  Level Fort Worth Center
Wed 11:14:58 AM 32.8228 -93.8606 25° Northeast 223 257 27,000  Level Fort Worth Center
Wed 11:16:00 AM 32.8803 -93.8300 24° Northeast 225 259 27,000  Level Fort Worth Center
Wed 11:17:02 AM 32.9369 -93.7989 25° Northeast 225 259 27,000  Level Fort Worth Center
Wed 11:18:04 AM 32.9936 -93.7686 24° Northeast 225 259 27,000  Level Fort Worth Center
Wed 11:19:06 AM 33.0614 -93.7314 25° Northeast 224 258 27,000  Level Fort Worth Center
Wed 11:20:08 AM 33.1181 -93.7003 25° Northeast 225 259 27,000  Level Fort Worth Center
Wed 11:21:10 AM 33.1756 -93.6694 24° Northeast 227 261 27,000  Level Fort Worth Center
Wed 11:22:12 AM 33.2319 -93.6386 25° Northeast 224 258 27,000  Level Fort Worth Center
Wed 11:23:14 AM 33.2889 -93.6072 25° Northeast 226 260 27,000  Level Fort Worth Center
Wed 11:24:17 AM 33.3561 -93.5703 25° Northeast 224 258 27,000  Level Fort Worth Center
Wed 11:25:19 AM 33.4114 -93.5400 25° Northeast 220 253 27,000  Level Fort Worth Center
Wed 11:26:21 AM 33.4683 -93.5100 24° Northeast 225 259 27,000  Level Fort Worth Center
Wed 11:27:23 AM 33.5231 -93.4783 26° Northeast 222 255 27,000  Level Fort Worth Center
Wed 11:28:25 AM 33.5786 -93.4483 24° Northeast 219 252 27,000  Level Fort Worth Center
Wed 11:29:27 AM 33.6453 -93.4125 24° Northeast 218 251 27,000  Level Fort Worth Center
Wed 11:30:29 AM 33.6997 -93.3811 26° Northeast 218 251 27,000  Level Fort Worth Center
Wed 11:31:31 AM 33.7539 -93.3519 24° Northeast 214 246 27,000  Level Fort Worth Center
Wed 11:32:33 AM 33.8089 -93.3217 25° Northeast 217 250 27,000  Level Fort Worth Center
Wed 11:33:35 AM 33.8633 -93.2908 25° Northeast 217 250 27,000  Level Fort Worth Center
Wed 11:34:38 AM 33.9175 -93.2597 25° Northeast 216 249 27,000  Level Fort Worth Center
Wed 11:35:40 AM 33.9833 -93.2242 24° Northeast 216 249 27,000  Level Fort Worth Center
Wed 11:36:42 AM 34.0372 -93.1936 25° Northeast 215 247 27,000  Level Fort Worth Center
Wed 11:37:44 AM 34.0919 -93.1636 24° Northeast 215 247 27,000  Level Fort Worth Center
Wed 11:38:46 AM 34.1458 -93.1331 25° Northeast 214 246 27,000  Level Fort Worth Center
Wed 11:39:48 AM 34.1997 -93.1022 25° Northeast 214 246 27,000  Level Fort Worth Center
Wed 11:40:50 AM 34.2639 -93.0658 25° Northeast 211 243 27,000  Level Fort Worth Center
Wed 11:41:52 AM 34.3200 -93.0383 22° Northeast 216 249 27,000  Level Fort Worth Center
Wed 11:42:54 AM 34.3739 -93.0069 26° Northeast 216 249 27,000  Level Fort Worth Center
Wed 11:43:56 AM 34.4333 -92.9733 25° Northeast 219 252 27,000  Level Fort Worth Center
Wed 11:44:59 AM 34.4892 -92.9411 25° Northeast 222 255 27,000  Level Fort Worth Center
Wed 11:46:01 AM 34.5464 -92.9103 24° Northeast 225 259 27,000  Level Fort Worth Center
Wed 11:47:31 AM 34.6347 -92.8611 25° Northeast 220 253 27,000  Level Memphis Center
Wed 11:48:33 AM 34.6889 -92.8289 26° Northeast 218 251 27,000  Level Memphis Center
Wed 11:49:35 AM 34.7444 -92.7989 24° Northeast 218 251 27,000  Level Memphis Center
Wed 11:50:37 AM 34.7983 -92.7667 26° Northeast 218 251 27,000  Level Memphis Center
Wed 11:51:39 AM 34.8536 -92.7356 25° Northeast 218 251 27,000  Level Memphis Center
Wed 11:52:41 AM 34.9181 -92.6983 25° Northeast 215 247 27,000  Level Memphis Center
Wed 11:53:43 AM 34.9719 -92.6683 25° Northeast 215 247 27,000  Level Memphis Center
Wed 11:54:45 AM 35.0256 -92.6378 25° Northeast 214 246 27,000  Level Memphis Center
Wed 11:55:47 AM 35.0800 -92.6050 26° Northeast 216 249 27,000  Level Memphis Center
Wed 11:56:49 AM 35.1333 -92.5753 25° Northeast 214 246 27,000  Level Memphis Center
Wed 11:57:51 AM 35.1886 -92.5442 25° Northeast 217 250 27,000  Level Memphis Center
Wed 11:58:53 AM 35.2522 -92.5069 26° Northeast 214 246 27,000  Level Memphis Center
Wed 11:59:55 AM 35.3072 -92.4761 25° Northeast 216 249 27,000  Level Memphis Center
Wed 12:00:57 PM 35.3597 -92.4453 26° Northeast 213 245 27,000  Level Memphis Center
Wed 12:01:59 PM 35.4125 -92.4150 25° Northeast 211 243 27,000  Level Memphis Center
Wed 12:03:01 PM 35.4644 -92.3850 25° Northeast 208 239 27,000  Level Memphis Center
Wed 12:04:03 PM 35.5269 -92.3483 26° Northeast 209 241 27,000  Level Memphis Center
Wed 12:05:06 PM 35.5789 -92.3186 25° Northeast 207 238 27,000  Level Memphis Center
Wed 12:06:08 PM 35.6297 -92.2886 26° Northeast 204 235 27,000  Level Memphis Center
Wed 12:07:10 PM 35.6817 -92.2594 25° Northeast 205 236 27,000  Level Memphis Center
Wed 12:08:12 PM 35.7328 -92.2283 26° Northeast 205 236 27,000  Level Memphis Center
Wed 12:09:14 PM 35.7842 -92.1983 25° Northeast 206 237 27,000  Level Memphis Center
Wed 12:10:16 PM 35.8464 -92.1625 25° Northeast 206 237 27,000  Level Memphis Center
Wed 12:11:18 PM 35.8975 -92.1333 25° Northeast 204 235 27,000  Level Memphis Center
Wed 12:12:20 PM 35.9472 -92.1028 26° Northeast 200 230 27,000  Level Memphis Center
Wed 12:13:22 PM 35.9972 -92.0728 26° Northeast 198 228 27,000  Level Memphis Center
Wed 12:14:24 PM 36.0461 -92.0439 26° Northeast 195 224 27,000  Level Memphis Center
Wed 12:15:26 PM 36.0953 -92.0158 25° Northeast 194 223 27,000  Level Memphis Center
Wed 12:16:28 PM 36.1517 -91.9822 26° Northeast 190 219 27,000  Level Memphis Center
Wed 12:17:30 PM 36.1994 -91.9539 26° Northeast 190 219 27,000  Level Memphis Center
Wed 12:18:32 PM 36.2458 -91.9275 25° Northeast 191 220 27,000  Level Memphis Center
Wed 12:19:34 PM 36.2925 -91.8994 26° Northeast 187 215 27,000  Level Memphis Center
Wed 12:20:36 PM 36.3400 -91.8722 25° Northeast 188 216 27,000  Level Memphis Center
Wed 12:21:38 PM 36.3950 -91.8400 25° Northeast 184 212 27,000  Level Memphis Center
Wed 12:22:40 PM 36.4397 -91.8128 26° Northeast 180 207 27,000  Level Memphis Center
Wed 12:23:42 PM 36.4869 -91.7836 26° Northeast 181 208 27,000  Level Memphis Center
Wed 12:24:44 PM 36.5331 -91.7575 24° Northeast 181 208 27,000  Level Memphis Center
Wed 12:25:46 PM 36.5783 -91.7294 26° Northeast 181 208 27,000  Level Memphis Center
Wed 12:26:48 PM 36.6239 -91.7033 25° Northeast 180 207 27,000  Level Memphis Center
Wed 12:27:30 PM 36.6506 -91.6858 28° Northeast 179 206 27,000  Level Kansas City Center
Wed 12:28:31 PM 36.7053 -91.6528 26° Northeast 181 208 27,000  Level Kansas City Center
Wed 12:29:35 PM 36.7497 -91.6258 26° Northeast 179 206 27,000  Level Kansas City Center
Wed 12:30:35 PM 36.7953 -91.5992 25° Northeast 179 206 27,000  Level Kansas City Center
Wed 12:31:38 PM 36.8408 -91.5722 25° Northeast 180 207 27,000  Level Kansas City Center
Wed 12:32:42 PM 36.8864 -91.5450 26° Northeast 181 208 27,000  Level Kansas City Center
Wed 12:33:43 PM 36.9339 -91.5156 26° Northeast 185 213 27,000  Level Kansas City Center
Wed 12:34:44 PM 36.9803 -91.4883 25° Northeast 186 214 27,000  Level Kansas City Center
Wed 12:35:47 PM 37.0353 -91.4544 26° Northeast 184 212 27,000  Level Kansas City Center
Wed 12:36:48 PM 37.0800 -91.4272 26° Northeast 181 208 27,000  Level Kansas City Center
Wed 12:37:52 PM 37.1278 -91.3969 27° Northeast 187 215 27,000  Level Kansas City Center
Wed 12:38:54 PM 37.1733 -91.3706 25° Northeast 182 209 27,000  Level Kansas City Center
Wed 12:39:54 PM 37.2181 -91.3425 27° Northeast 180 207 27,000  Level Kansas City Center
Wed 12:40:58 PM 37.2636 -91.3156 25° Northeast 180 207 27,000  Level Kansas City Center
Wed 12:41:59 PM 37.3186 -91.2831 25° Northeast 181 208 27,000  Level Kansas City Center
Wed 12:43:00 PM 37.3639 -91.2539 27° Northeast 181 208 27,000  Level Kansas City Center
Wed 12:44:03 PM 37.4094 -91.2256 26° Northeast 181 208 27,000  Level Kansas City Center
Wed 12:45:05 PM 37.4556 -91.1978 26° Northeast 183 211 27,000  Level Kansas City Center
Wed 12:46:08 PM 37.5011 -91.1706 25° Northeast 182 209 27,000  Level Kansas City Center
Wed 12:47:09 PM 37.5464 -91.1431 26° Northeast 181 208 27,000  Level Kansas City Center
Wed 12:48:10 PM 37.5914 -91.1147 27° Northeast 180 207 27,000  Level Kansas City Center
Wed 12:49:14 PM 37.6472 -91.0800 26° Northeast 184 212 27,000  Level Kansas City Center
Wed 12:50:14 PM 37.6886 -91.0558 25° Northeast 183 211 27,000  Level Kansas City Center
Wed 12:51:18 PM 37.7336 -91.0278 26° Northeast 181 208 27,000  Level Kansas City Center
Wed 12:52:18 PM 37.7789 -90.9992 27° Northeast 182 209 27,000  Level Kansas City Center
Wed 12:53:22 PM 37.8350 -90.9650 26° Northeast 184 212 27,000 -288 Level Kansas City Center
Wed 12:54:23 PM 37.8781 -90.9378 27° Northeast 178 205 26,400 -1,008 Descending Kansas City Center
Wed 12:55:27 PM 37.9244 -90.9094 26° Northeast 181 208 24,900 -1,152 Descending Kansas City Center
Wed 12:56:28 PM 37.9731 -90.8783 27° Northeast 192 221 24,000 -443 Descending Kansas City Center
Wed 12:57:29 PM 38.0181 -90.8503 26° Northeast 185 213 24,000  Level Kansas City Center
Wed 12:58:32 PM 38.0600 -90.8242 26° Northeast 174 200 24,000  Level Kansas City Center
Wed 12:59:34 PM 38.1106 -90.7931 26° Northeast 169 194 24,000  Level Kansas City Center
Wed 01:00:37 PM 38.1531 -90.7661 26° Northeast 169 194 24,000  Level Kansas City Center
Wed 01:01:38 PM 38.1953 -90.7394 26° Northeast 170 196 24,000  Level Kansas City Center
Wed 01:02:41 PM 38.2375 -90.7136 26° Northeast 169 194 24,000  Level Kansas City Center
Wed 01:03:42 PM 38.2792 -90.6875 26° Northeast 167 192 24,000  Level Kansas City Center
Wed 01:04:43 PM 38.3208 -90.6617 26° Northeast 167 192 24,000  Level Kansas City Center
Wed 01:05:46 PM 38.3708 -90.6297 27° Northeast 168 193 24,000  Level Kansas City Center
Wed 01:06:47 PM 38.4119 -90.6036 26° Northeast 168 193 24,000 -435 Level Kansas City Center
Wed 01:07:50 PM 38.4553 -90.5764 26° Northeast 170 196 23,100 -1,161 Descending Kansas City Center
Wed 01:08:51 PM 38.5058 -90.5436 27° Northeast 191 220 21,600 -1,392 Descending Kansas City Center
Wed 01:09:55 PM 38.5603 -90.5064 28° Northeast 205 236 20,200 -823 Descending Kansas City Center
Wed 01:10:55 PM 38.6269 -90.4672 25° Northeast 215 247 19,900 -871 Descending Kansas City Center
Wed 01:11:59 PM 38.6811 -90.4331 26° Northeast 215 247 18,400 -1,355 Descending Kansas City Center
Wed 01:12:59 PM 38.7411 -90.3947 26° Northeast 226 260 17,100 -1,161 Descending Kansas City Center
Wed 01:14:03 PM 38.8036 -90.3542 27° Northeast 241 277 16,000 -532 Descending Kansas City Center
Wed 01:15:03 PM 38.8642 -90.3158 26° Northeast 243 280 16,000 -145 Level Kansas City Center
Wed 01:16:07 PM 38.9186 -90.2811 26° Northeast 226 260 15,700 -912 Descending Kansas City Center
Wed 01:17:08 PM 38.9850 -90.2383 27° Northeast 243 280 14,100 -1,500 Descending Kansas City Center
Wed 01:18:11 PM 39.0511 -90.1958 27° Northeast 259 298 12,600 -1,452 Descending Kansas City Center
Wed 01:19:12 PM 39.1169 -90.1528 27° Northeast 265 305 11,100 -768 Descending Kansas City Center
Wed 01:20:16 PM 39.1936 -90.1028 27° Northeast 259 298 11,000 -48 Descending Kansas City Center
Wed 01:21:16 PM 39.2528 -90.0656 26° Northeast 243 280 11,000  Level Kansas City Center
Wed 01:22:18 PM 39.3108 -90.0269 27° Northeast 237 273 11,000  Level Kansas City Center
Wed 01:23:22 PM 39.3597 -89.9775 38° Northeast 225 259 11,000 -629 Level Kansas City Center
Wed 01:24:22 PM 39.4078 -89.9181 44° Northeast 234 269 9,700 -1,366 Descending Kansas City Center
Wed 01:25:25 PM 39.4617 -89.8575 41° Northeast 252 290 8,200 -1,597 Descending Kansas City Center
Wed 01:26:26 PM 39.5258 -89.7839 41° Northeast 256 295 6,400 -1,597 Descending Kansas City Center
Wed 01:27:29 PM 39.5778 -89.7222 42° Northeast 255 293 4,900 -1,417 Descending Kansas City Center
Wed 01:28:33 PM 39.6306 -89.6622 41° Northeast 253 291 3,400 -919 Descending Kansas City Center
Wed 01:29:33 PM 39.6739 -89.6114 42° Northeast 217 250 3,000 -194 Descending Kansas City Center
Wed 01:30:37 PM 39.7111 -89.5681 42° Northeast 199 229 3,000  Level Kansas City Center
Wed 01:31:38 PM 39.7642 -89.5433 20° North 199 229 3,000 -347 Level Kansas City Center
Wed 01:32:38 PM 39.7917 -89.5867 310° West 171 197 2,300 -677 Descending Kansas City Center
Wed 01:33:42 PM 39.8136 -89.6269 305° West 151 174 1,600 -432 Descending Kansas City Center
Wed 01:34:43 PM 39.8339 -89.6628 306° West 147 169 1,400 -197 Descending Kansas City Center
Wed 01:36:00 PM 39.8333 -89.6667 330° Northwest  Level FlightAware Approximate

Login

Don't have an account? Register now (free) for customized features, flight alerts, and more!